Gliwice, Pollando

16:32 CEST je la 23an de majo 2017 (GMT +0200)
Gliwice County | | Change Station

Elev 0 ft 50.29 °N, 18.67 °E | Updated 19 seconds ago

Pluvo
Pluvo
77.4 °F
Sentas kiel 79 °F
N
1.9
Vento Varianta Vento from NOk
Gusts 4.3 mej/h

hodiaŭ
High -- | Low -- °F
--% Ebla precip.
hieraŭ
High -- | Low -- °F
Precip. -- co
Aerpremo 29.98 co
Vidodistanco 6.2 mejloj
Nuboj Malpliparte nuba 2900 ft
Malpliparte nuba 6900 ft
Varmindico 79 °F
Rosopunkto 54 °F
Humido 44%
Pluvokvanto Not available.
Neĝprofundo Not available.
4:48 AM 8:36 PM
Malkreskanta Lunarko, 7% visible
METAR EPKK 231430Z VRB02KT 9999 -SHRA SCT029CB SCT069 17/15 Q1015
Aerpremo 29.98 co
Vidodistanco 6.2 mejloj
Nuboj Malpliparte nuba 2900 ft
Malpliparte nuba 6900 ft
Varmindico 79 °F
Rosopunkto 54 °F
Humido 44%
Pluvokvanto Not available.
Neĝprofundo Not available.
4:48 AM 8:36 PM
Malkreskanta Lunarko, 7% visible
METAR EPKK 231430Z VRB02KT 9999 -SHRA SCT029CB SCT069 17/15 Q1015

Get Severe Weather Alerts

Thanks for signing up!

Be on the lookout for a verification email in your inbox.

You'll start receiving the daily forecast at 6 AM.

×

10-Day Weather Forecast

×

Almanac

Astronomio

May. 23, 2017 Leviĝo Subiro
Aktuala tempo
Civila krepusko
Naŭtika krepusko
Astronomia krepusko
Luno
Daŭro de videbla lumo
Daŭro de tago
Tomorrow will be .
, % of the Moon is Illuminated

Hodiaŭaj ekstremaĵoj

Country Highs Country Lows

Community

WunderPhotos

Category 6

Welcome to Category 6. This is the collective home for Weather Underground's featured writeups by Dr. Jeff Masters (right), Bob Henson (left), Chris Burt, and other regular contributors.

Nearby

Aerkvalito

  Aerkvalito Aerkvalita indico Poluanto
Not available.

Neĝa profundeco

Station Depth Alteco

Earthquake Activity

Urbo Distance Mag. Time & Date
Minimum magnitude displayed is 2.5.

Coastal Water Temperatures

Loko Temperaturo

Stations

Najbaraj veter-stacioj

Loko de stacio Temp Venta
kvazaŭtemperaturo
Rosopunkto Humido Vento Precip. Elev Ĝisdatigita je Tipo